createdAt,value
2022-08-31T00:01:07.883Z,99248.42
2022-08-31T00:03:58.333Z,99246.56
2022-08-31T00:06:26.880Z,99243.30
2022-08-31T00:08:56.420Z,99238.60
2022-08-31T00:11:32.233Z,99241.80
2022-08-31T00:14:04.724Z,99240.23
2022-08-31T00:16:39.043Z,99242.34
2022-08-31T00:19:08.127Z,99241.80
2022-08-31T00:21:36.772Z,99243.90
2022-08-31T00:24:06.106Z,99239.11
2022-08-31T00:26:35.720Z,99238.40
2022-08-31T00:29:05.743Z,99242.61
2022-08-31T00:31:34.722Z,99245.08
2022-08-31T00:34:06.102Z,99244.41
2022-08-31T00:36:35.183Z,99248.24
2022-08-31T00:39:06.848Z,99249.34
2022-08-31T00:41:38.737Z,99245.61
2022-08-31T00:44:10.884Z,99242.92
2022-08-31T00:46:42.784Z,99245.50
2022-08-31T00:49:22.362Z,99242.97
2022-08-31T00:51:59.659Z,99243.97
2022-08-31T00:54:35.012Z,99241.52
2022-08-31T00:57:05.938Z,99238.37
2022-08-31T00:59:35.361Z,99239.95
2022-08-31T01:02:05.038Z,99237.15
2022-08-31T01:04:35.726Z,99237.91
2022-08-31T01:07:08.493Z,99237.77
2022-08-31T01:09:45.101Z,99241.59
2022-08-31T01:12:25.993Z,99238.70
2022-08-31T01:14:55.817Z,99237.08
2022-08-31T01:17:24.445Z,99233.72
2022-08-31T01:20:12.565Z,99227.07
2022-08-31T01:23:16.976Z,99224.10
2022-08-31T01:25:48.705Z,99223.04
2022-08-31T01:28:18.132Z,99221.36
2022-08-31T01:31:04.692Z,99226.60
2022-08-31T01:33:37.218Z,99226.40
2022-08-31T01:36:11.109Z,99227.44
2022-08-31T01:38:43.995Z,99220.34
2022-08-31T01:41:13.831Z,99217.79
2022-08-31T01:43:43.262Z,99213.23
2022-08-31T01:46:14.089Z,99219.20
2022-08-31T01:48:44.525Z,99218.60
2022-08-31T01:51:17.301Z,99220.56
2022-08-31T01:53:48.669Z,99218.59
2022-08-31T01:56:27.104Z,99221.06
2022-08-31T01:58:59.220Z,99218.98
2022-08-31T02:01:53.808Z,99221.83
2022-08-31T02:04:25.788Z,99225.58
2022-08-31T02:07:00.510Z,99225.95
2022-08-31T02:09:29.774Z,99223.84
2022-08-31T02:12:01.061Z,99220.20
2022-08-31T02:14:29.729Z,99222.17
2022-08-31T02:16:58.572Z,99220.27
2022-08-31T02:19:28.427Z,99218.30
2022-08-31T02:21:57.800Z,99223.05
2022-08-31T02:24:26.461Z,99222.69
2022-08-31T02:26:57.748Z,99224.95
2022-08-31T02:29:27.925Z,99227.09
2022-08-31T02:31:57.488Z,99227.96
2022-08-31T02:34:27.135Z,99223.27
2022-08-31T02:36:56.934Z,99223.30
2022-08-31T02:39:25.749Z,99221.41
2022-08-31T02:41:56.869Z,99219.17
2022-08-31T02:44:25.801Z,99216.73
2022-08-31T02:46:54.456Z,99214.13
2022-08-31T02:49:47.140Z,99218.33
2022-08-31T02:52:15.931Z,99212.71
2022-08-31T02:54:44.487Z,99219.36
2022-08-31T02:57:13.675Z,99216.92
2022-08-31T02:59:42.657Z,99214.14
2022-08-31T03:02:11.356Z,99211.35
2022-08-31T03:04:41.566Z,99208.34
2022-08-31T03:07:10.503Z,99205.85
2022-08-31T03:09:39.202Z,99206.56
2022-08-31T03:12:08.602Z,99203.08
2022-08-31T03:14:38.001Z,99204.38
2022-08-31T03:17:06.690Z,99202.71
2022-08-31T03:19:35.550Z,99203.45
2022-08-31T03:22:05.589Z,99205.38
2022-08-31T03:24:34.231Z,99209.27
2022-08-31T03:27:03.526Z,99205.76
2022-08-31T03:29:32.479Z,99202.77
2022-08-31T03:32:15.359Z,99203.48
2022-08-31T03:34:46.687Z,99202.98
2022-08-31T03:37:15.943Z,99203.17
2022-08-31T03:39:45.448Z,99209.13
2022-08-31T03:42:13.956Z,99209.63
2022-08-31T03:44:42.722Z,99213.10
2022-08-31T03:47:18.783Z,99215.05
2022-08-31T03:49:48.011Z,99214.58
2022-08-31T03:52:22.279Z,99211.48
2022-08-31T03:54:58.890Z,99206.45
2022-08-31T03:57:27.549Z,99206.31
2022-08-31T04:00:01.228Z,99205.20
2022-08-31T04:02:42.574Z,99209.30
2022-08-31T04:05:46.539Z,99207.31
2022-08-31T04:08:17.086Z,99206.95
2022-08-31T04:11:17.231Z,99206.26
2022-08-31T04:14:21.336Z,99203.48
2022-08-31T04:17:13.384Z,99206.25
2022-08-31T04:19:46.027Z,99209.86
2022-08-31T04:22:27.541Z,99209.63
2022-08-31T04:25:19.064Z,99213.45
2022-08-31T04:27:50.999Z,99214.02
2022-08-31T04:30:22.110Z,99211.96
2022-08-31T04:32:50.739Z,99211.24
2022-08-31T04:35:19.515Z,99212.62
2022-08-31T04:37:48.552Z,99213.70
2022-08-31T04:40:25.594Z,99211.10
2022-08-31T04:42:55.445Z,99213.56
2022-08-31T04:45:25.822Z,99216.84
2022-08-31T04:47:54.467Z,99219.64
2022-08-31T04:50:23.712Z,99227.02
2022-08-31T04:53:10.354Z,99222.77
2022-08-31T04:55:43.627Z,99223.29
2022-08-31T04:58:14.061Z,99223.68
2022-08-31T05:00:44.482Z,99224.96
2022-08-31T05:03:36.175Z,99224.48
2022-08-31T05:06:05.985Z,99226.04
2022-08-31T05:08:35.426Z,99233.89
2022-08-31T05:11:15.578Z,99236.78
2022-08-31T05:13:45.428Z,99241.80
2022-08-31T05:16:16.924Z,99246.98
2022-08-31T05:18:48.430Z,99246.83
2022-08-31T05:21:28.716Z,99250.44
2022-08-31T05:24:20.546Z,99252.80
2022-08-31T05:26:52.360Z,99250.64
2022-08-31T05:29:24.293Z,99255.66
2022-08-31T05:31:59.960Z,99258.58
2022-08-31T05:34:28.677Z,99256.95
2022-08-31T05:36:57.780Z,99259.51
2022-08-31T05:39:32.784Z,99264.19
2022-08-31T05:42:02.110Z,99266.92
2022-08-31T05:44:35.365Z,99273.52
2022-08-31T05:47:09.442Z,99273.63
2022-08-31T05:49:39.408Z,99272.77
2022-08-31T05:52:11.006Z,99276.51
2022-08-31T05:54:40.898Z,99287.45
2022-08-31T05:57:09.913Z,99288.33
2022-08-31T05:59:39.746Z,99290.61
2022-08-31T06:02:12.213Z,99295.81
2022-08-31T06:04:41.612Z,99301.02
2022-08-31T06:07:10.964Z,99301.33
2022-08-31T06:09:46.309Z,99304.83
2022-08-31T06:12:20.437Z,99304.27
2022-08-31T06:14:53.251Z,99309.12
2022-08-31T06:17:24.579Z,99311.86
2022-08-31T06:19:53.862Z,99313.31
2022-08-31T06:22:23.808Z,99311.86
2022-08-31T06:24:55.145Z,99319.16
2022-08-31T06:27:25.848Z,99317.70
2022-08-31T06:30:06.940Z,99316.92
2022-08-31T06:32:36.796Z,99320.60
2022-08-31T06:35:07.383Z,99325.63
2022-08-31T06:37:54.722Z,99323.80
2022-08-31T06:41:02.421Z,99328.27
2022-08-31T06:44:02.353Z,99331.34
2022-08-31T06:46:47.263Z,99332.29
2022-08-31T06:49:27.088Z,99329.55
2022-08-31T06:51:56.058Z,99331.55
2022-08-31T06:54:31.893Z,99330.77
2022-08-31T06:57:20.548Z,99331.81
2022-08-31T07:00:08.777Z,99330.52
2022-08-31T07:02:40.834Z,99332.94
2022-08-31T07:05:15.090Z,99333.03
2022-08-31T07:07:49.144Z,99335.70
2022-08-31T07:10:19.820Z,99342.55
2022-08-31T07:12:48.557Z,99344.89
2022-08-31T07:15:17.712Z,99347.64
2022-08-31T07:17:46.871Z,99353.58
2022-08-31T07:20:15.469Z,99354.09
2022-08-31T07:22:46.754Z,99353.54
2022-08-31T07:25:39.517Z,99352.52
2022-08-31T07:28:08.881Z,99355.27
2022-08-31T07:30:42.509Z,99351.17
2022-08-31T07:33:15.254Z,99352.84
2022-08-31T07:35:49.748Z,99346.73
2022-08-31T07:38:47.382Z,99348.58
2022-08-31T07:41:55.483Z,99344.00
2022-08-31T07:44:25.205Z,99347.91
2022-08-31T07:46:55.431Z,99354.62
2022-08-31T07:49:26.789Z,99354.19
2022-08-31T07:52:16.578Z,99357.05
2022-08-31T07:58:13.717Z,99351.83
2022-08-31T08:00:43.634Z,99356.75
2022-08-31T08:03:13.460Z,99356.83
2022-08-31T08:06:13.520Z,99361.70
2022-08-31T08:09:21.460Z,99359.67
2022-08-31T08:12:08.377Z,99358.73
2022-08-31T08:14:46.089Z,99360.16
2022-08-31T08:17:41.401Z,99368.33
2022-08-31T08:20:14.111Z,99368.91
2022-08-31T08:22:55.329Z,99374.75
2022-08-31T08:25:36.734Z,99365.36
2022-08-31T08:28:45.734Z,99362.08
2022-08-31T08:31:23.586Z,99366.01
2022-08-31T08:33:52.770Z,99370.44
2022-08-31T08:36:21.840Z,99372.15
2022-08-31T08:38:54.565Z,99376.29
2022-08-31T08:41:29.356Z,99372.10
2022-08-31T08:44:02.759Z,99372.48
2022-08-31T08:46:41.339Z,99376.52
2022-08-31T08:49:30.618Z,99375.03
2022-08-31T08:52:42.653Z,99373.91
2022-08-31T08:55:32.109Z,99375.90
2022-08-31T08:58:06.328Z,99375.91
2022-08-31T09:00:35.761Z,99380.27
2022-08-31T09:03:23.104Z,99375.11
2022-08-31T09:06:17.226Z,99375.11
2022-08-31T09:09:41.477Z,99373.50
2022-08-31T09:12:15.022Z,99370.89
2022-08-31T09:15:36.954Z,99369.55
2022-08-31T09:18:29.459Z,99371.54
2022-08-31T09:21:25.602Z,99372.69
2022-08-31T09:24:02.737Z,99374.56
2022-08-31T09:27:20.584Z,99369.59
2022-08-31T09:30:00.483Z,99372.73
2022-08-31T09:32:35.880Z,99375.77
2022-08-31T09:35:09.645Z,99373.74
2022-08-31T09:37:46.655Z,99376.09
2022-08-31T09:40:36.913Z,99377.40
2022-08-31T09:43:16.467Z,99381.50
2022-08-31T09:46:02.201Z,99380.01
2022-08-31T09:48:52.592Z,99378.02
2022-08-31T09:51:39.843Z,99380.94
2022-08-31T09:54:47.402Z,99375.23
2022-08-31T09:57:18.121Z,99373.13
2022-08-31T09:59:50.373Z,99370.55
2022-08-31T10:02:23.475Z,99367.77
2022-08-31T10:04:59.473Z,99369.69
2022-08-31T10:07:57.106Z,99368.71
2022-08-31T10:10:31.922Z,99367.16
2022-08-31T10:13:04.586Z,99366.98
2022-08-31T10:15:49.100Z,99362.25
2022-08-31T10:18:52.823Z,99359.01
2022-08-31T10:21:32.111Z,99361.84
2022-08-31T10:24:21.526Z,99360.21
2022-08-31T10:27:03.552Z,99358.70
2022-08-31T10:29:43.353Z,99358.88
2022-08-31T10:32:19.230Z,99364.21
2022-08-31T10:35:06.192Z,99367.66
2022-08-31T10:37:37.189Z,99366.55
2022-08-31T10:40:12.696Z,99374.73
2022-08-31T10:43:14.661Z,99377.31
2022-08-31T10:45:49.796Z,99376.55
2022-08-31T10:48:26.032Z,99380.34
2022-08-31T10:51:19.922Z,99377.23
2022-08-31T10:54:01.780Z,99373.80
2022-08-31T10:56:45.764Z,99378.77
2022-08-31T10:59:56.526Z,99376.89
2022-08-31T11:02:28.826Z,99377.84
2022-08-31T11:05:06.433Z,99371.42
2022-08-31T11:07:47.975Z,99371.17
2022-08-31T11:10:20.271Z,99368.98
2022-08-31T11:13:06.356Z,99363.13
2022-08-31T11:15:54.740Z,99364.27
2022-08-31T11:18:51.548Z,99367.15
2022-08-31T11:21:39.229Z,99367.64
2022-08-31T11:24:14.106Z,99368.47
2022-08-31T11:27:00.645Z,99370.02
2022-08-31T11:29:44.323Z,99368.79
2022-08-31T11:32:50.825Z,99366.46
2022-08-31T11:35:48.936Z,99364.46
2022-08-31T11:38:43.180Z,99364.81
2022-08-31T11:41:32.179Z,99366.98
2022-08-31T11:44:04.673Z,99367.48
2022-08-31T11:46:43.705Z,99363.94
2022-08-31T11:49:40.465Z,99368.13
2022-08-31T11:52:30.140Z,99365.86
2022-08-31T11:55:00.937Z,99365.42
2022-08-31T11:57:37.446Z,99366.45
2022-08-31T12:00:19.851Z,99371.19
2022-08-31T12:03:04.991Z,99370.09
2022-08-31T12:05:56.729Z,99365.58
2022-08-31T12:08:33.253Z,99358.01
2022-08-31T12:11:35.481Z,99353.63
2022-08-31T12:14:30.135Z,99355.87
2022-08-31T12:17:10.045Z,99356.13
2022-08-31T12:20:10.069Z,99356.76
2022-08-31T12:23:31.192Z,99349.27
2022-08-31T12:26:14.036Z,99346.49
2022-08-31T12:29:04.097Z,99345.17
2022-08-31T12:31:37.042Z,99343.02
2022-08-31T12:34:24.740Z,99340.84
2022-08-31T12:36:54.336Z,99339.39
2022-08-31T12:39:26.181Z,99334.20
2022-08-31T12:42:00.680Z,99334.95
2022-08-31T12:44:36.734Z,99332.84
2022-08-31T12:47:28.215Z,99337.85
2022-08-31T12:50:20.753Z,99333.90
2022-08-31T12:53:07.682Z,99333.23
2022-08-31T12:56:01.793Z,99330.11
2022-08-31T12:59:09.724Z,99322.35
2022-08-31T13:01:46.741Z,99325.09
2022-08-31T13:04:19.055Z,99314.54
2022-08-31T13:06:51.291Z,99311.95
2022-08-31T13:09:32.514Z,99308.05
2022-08-31T13:12:02.208Z,99306.73
2022-08-31T13:14:43.921Z,99306.13
2022-08-31T13:17:18.241Z,99305.44
2022-08-31T13:19:56.920Z,99300.38
2022-08-31T13:22:43.026Z,99300.77
2022-08-31T13:25:17.005Z,99303.66
2022-08-31T13:27:51.841Z,99302.72
2022-08-31T13:30:39.362Z,99306.16
2022-08-31T13:33:31.518Z,99303.19
2022-08-31T13:36:33.179Z,99306.81
2022-08-31T13:39:16.352Z,99313.78
2022-08-31T13:42:06.651Z,99310.67
2022-08-31T13:44:40.099Z,99308.73
2022-08-31T13:47:28.112Z,99305.04
2022-08-31T13:50:13.442Z,99301.48
2022-08-31T13:53:22.676Z,99305.76
2022-08-31T13:55:44.464Z,99304.43
2022-08-31T13:58:33.242Z,99305.42
2022-08-31T14:01:25.417Z,99303.16
2022-08-31T14:04:01.044Z,99305.20
2022-08-31T14:06:39.414Z,99306.59
2022-08-31T14:09:16.613Z,99304.81
2022-08-31T14:12:04.727Z,99307.99
2022-08-31T14:14:43.937Z,99298.33
2022-08-31T14:17:18.217Z,99295.84
2022-08-31T14:19:47.438Z,99295.65
2022-08-31T14:22:32.641Z,99296.91
2022-08-31T14:25:03.129Z,99295.34
2022-08-31T14:27:37.155Z,99291.86
2022-08-31T14:30:13.433Z,99292.48
2022-08-31T14:32:45.997Z,99291.80
2022-08-31T14:35:14.941Z,99292.91
2022-08-31T14:37:44.726Z,99294.50
2022-08-31T14:40:14.391Z,99289.66
2022-08-31T14:42:44.700Z,99293.25
2022-08-31T14:45:18.967Z,99295.25
2022-08-31T14:47:52.646Z,99297.55
2022-08-31T14:50:30.295Z,99298.33
2022-08-31T14:53:01.908Z,99296.20
2022-08-31T14:55:31.280Z,99290.83
2022-08-31T14:58:05.651Z,99286.20
2022-08-31T15:00:44.281Z,99287.75
2022-08-31T15:03:15.393Z,99287.23
2022-08-31T15:05:47.866Z,99286.45
2022-08-31T15:08:22.903Z,99282.61
2022-08-31T15:11:07.059Z,99281.38
2022-08-31T15:13:39.579Z,99279.58
2022-08-31T15:16:13.593Z,99274.95
2022-08-31T15:18:43.866Z,99276.08
2022-08-31T15:21:13.033Z,99274.09
2022-08-31T15:23:42.121Z,99271.77
2022-08-31T15:26:15.395Z,99272.69
2022-08-31T15:28:44.174Z,99270.37
2022-08-31T15:31:22.292Z,99268.73
2022-08-31T15:33:54.193Z,99264.65
2022-08-31T15:36:25.443Z,99265.56
2022-08-31T15:38:57.497Z,99266.66
2022-08-31T15:41:29.837Z,99268.31
2022-08-31T15:43:58.719Z,99264.10
2022-08-31T15:46:46.426Z,99267.80
2022-08-31T15:49:15.497Z,99268.65
2022-08-31T15:51:50.602Z,99269.23
2022-08-31T15:54:22.966Z,99264.35
2022-08-31T15:56:53.755Z,99262.70
2022-08-31T15:59:25.491Z,99261.57
2022-08-31T16:01:54.315Z,99257.55
2022-08-31T16:04:26.286Z,99257.98
2022-08-31T16:06:55.914Z,99255.23
2022-08-31T16:09:24.512Z,99251.05
2022-08-31T16:11:53.866Z,99250.90
2022-08-31T16:14:23.459Z,99248.79
2022-08-31T16:16:52.211Z,99250.48
2022-08-31T16:19:34.725Z,99247.31
2022-08-31T16:22:07.991Z,99248.04
2022-08-31T16:24:37.852Z,99248.63
2022-08-31T16:27:08.343Z,99245.65
2022-08-31T16:29:37.387Z,99247.47
2022-08-31T16:32:07.154Z,99252.98
2022-08-31T16:34:37.749Z,99253.72
2022-08-31T16:37:08.296Z,99247.70
2022-08-31T16:39:44.503Z,99246.45
2022-08-31T16:42:14.775Z,99250.44
2022-08-31T16:44:47.976Z,99250.05
2022-08-31T16:47:19.320Z,99248.82
2022-08-31T16:49:48.634Z,99251.87
2022-08-31T16:52:22.035Z,99252.59
2022-08-31T16:54:52.668Z,99250.70
2022-08-31T16:57:27.713Z,99250.91
2022-08-31T16:59:58.780Z,99250.81
2022-08-31T17:02:42.343Z,99251.63
2022-08-31T17:05:33.608Z,99253.87
2022-08-31T17:08:23.921Z,99254.98
2022-08-31T17:11:31.868Z,99255.05
2022-08-31T17:14:26.145Z,99251.95
2022-08-31T17:17:14.925Z,99255.19
2022-08-31T17:20:09.246Z,99257.59
2022-08-31T17:22:55.715Z,99256.30
2022-08-31T17:25:51.596Z,99260.80
2022-08-31T17:28:42.382Z,99264.58
2022-08-31T17:31:35.017Z,99261.34
2022-08-31T17:34:26.589Z,99266.00
2022-08-31T17:37:17.953Z,99266.60
2022-08-31T17:39:56.009Z,99264.57
2022-08-31T17:42:42.618Z,99264.31
2022-08-31T17:45:11.774Z,99263.31
2022-08-31T17:47:40.530Z,99267.96
2022-08-31T17:50:09.891Z,99262.98
2022-08-31T17:52:38.715Z,99266.07
2022-08-31T17:55:07.696Z,99272.42
2022-08-31T17:57:37.022Z,99271.61
2022-08-31T18:00:07.270Z,99271.70
2022-08-31T18:02:38.543Z,99274.54
2022-08-31T18:05:11.598Z,99275.47
2022-08-31T18:07:41.622Z,99275.34
2022-08-31T18:10:11.219Z,99275.18
2022-08-31T18:12:42.314Z,99273.95
2022-08-31T18:15:13.060Z,99270.69
2022-08-31T18:17:43.364Z,99273.73
2022-08-31T18:20:12.807Z,99275.55
2022-08-31T18:22:41.531Z,99275.30
2022-08-31T18:25:11.111Z,99280.98
2022-08-31T18:27:40.316Z,99287.16
2022-08-31T18:30:12.388Z,99286.16
2022-08-31T18:32:42.539Z,99288.31
2022-08-31T18:35:17.012Z,99290.98
2022-08-31T18:37:46.056Z,99290.66
2022-08-31T18:40:33.576Z,99290.85
2022-08-31T18:43:21.686Z,99287.70
2022-08-31T18:45:51.561Z,99288.94
2022-08-31T18:48:26.416Z,99288.05
2022-08-31T18:50:59.436Z,99291.23
2022-08-31T18:53:32.770Z,99296.17
2022-08-31T18:56:11.106Z,99294.99
2022-08-31T18:58:40.508Z,99294.83
2022-08-31T19:01:13.020Z,99294.50
2022-08-31T19:03:42.838Z,99293.49
2022-08-31T19:06:18.631Z,99297.91
2022-08-31T19:08:47.843Z,99298.13
2022-08-31T19:11:19.792Z,99298.20
2022-08-31T19:13:51.318Z,99304.03
2022-08-31T19:16:25.167Z,99300.91
2022-08-31T19:18:58.008Z,99302.38
2022-08-31T19:21:33.789Z,99299.92
2022-08-31T19:24:06.043Z,99297.14
2022-08-31T19:26:42.339Z,99301.04
2022-08-31T19:29:14.615Z,99299.64
2022-08-31T19:31:46.553Z,99301.94
2022-08-31T19:34:20.152Z,99297.76
2022-08-31T19:36:54.466Z,99298.33
2022-08-31T19:39:27.422Z,99298.73
2022-08-31T19:41:59.705Z,99296.84
2022-08-31T19:44:29.323Z,99301.41
2022-08-31T19:47:25.063Z,99304.45
2022-08-31T19:49:54.276Z,99302.20
2022-08-31T19:52:25.505Z,99304.69
2022-08-31T19:54:54.443Z,99303.86
2022-08-31T19:57:23.267Z,99296.90
2022-08-31T19:59:57.551Z,99296.23
2022-08-31T20:02:27.423Z,99292.06
2022-08-31T20:04:56.546Z,99297.52
2022-08-31T20:07:26.060Z,99296.48
2022-08-31T20:09:59.541Z,99294.39
2022-08-31T20:12:28.257Z,99296.86
2022-08-31T20:14:57.245Z,99297.23
2022-08-31T20:17:30.796Z,99298.11
2022-08-31T20:20:00.306Z,99301.06
2022-08-31T20:22:29.897Z,99304.02
2022-08-31T20:25:01.557Z,99304.20
2022-08-31T20:27:31.332Z,99306.29
2022-08-31T20:30:00.694Z,99307.19
2022-08-31T20:32:29.970Z,99304.94
2022-08-31T20:35:01.393Z,99304.23
2022-08-31T20:37:30.859Z,99304.19
2022-08-31T20:39:59.443Z,99301.86
2022-08-31T20:42:29.132Z,99301.83
2022-08-31T20:44:58.407Z,99301.48
2022-08-31T20:47:46.365Z,99303.59
2022-08-31T20:50:15.583Z,99296.98
2022-08-31T20:52:44.052Z,99297.37
2022-08-31T20:55:14.681Z,99300.08
2022-08-31T20:57:43.610Z,99299.04
2022-08-31T21:00:12.667Z,99302.42
2022-08-31T21:02:41.532Z,99305.96
2022-08-31T21:05:37.305Z,99309.71
2022-08-31T21:08:00.624Z,99308.33
2022-08-31T21:10:37.125Z,99304.13
2022-08-31T21:13:13.204Z,99301.31
2022-08-31T21:15:46.521Z,99302.88
2022-08-31T21:18:20.035Z,99303.73
2022-08-31T21:20:49.298Z,99301.84
2022-08-31T21:23:18.796Z,99300.82
2022-08-31T21:25:47.959Z,99296.30
2022-08-31T21:28:18.253Z,99296.98
2022-08-31T21:30:50.339Z,99296.83
2022-08-31T21:33:19.778Z,99300.89
2022-08-31T21:35:49.211Z,99300.58
2022-08-31T21:38:18.782Z,99304.64
2022-08-31T21:40:49.560Z,99301.34
2022-08-31T21:43:18.719Z,99304.50
2022-08-31T21:45:47.845Z,99304.33
2022-08-31T21:48:25.819Z,99305.38
2022-08-31T21:50:56.333Z,99305.20
2022-08-31T21:53:26.752Z,99307.66
2022-08-31T21:55:55.241Z,99311.70
2022-08-31T21:58:24.137Z,99319.48
2022-08-31T22:00:55.969Z,99310.98
2022-08-31T22:03:25.329Z,99315.88
2022-08-31T22:05:54.981Z,99317.60
2022-08-31T22:08:26.458Z,99317.58
2022-08-31T22:10:55.870Z,99320.16
2022-08-31T22:13:24.433Z,99320.34
2022-08-31T22:15:57.134Z,99321.59
2022-08-31T22:21:24.444Z,99320.02
2022-08-31T22:23:57.400Z,99321.25
2022-08-31T22:26:29.046Z,99322.30
2022-08-31T22:28:59.719Z,99324.23
2022-08-31T22:31:28.463Z,99320.75
2022-08-31T22:33:58.237Z,99319.53
2022-08-31T22:36:32.357Z,99321.48
2022-08-31T22:39:08.059Z,99315.76
2022-08-31T22:41:38.592Z,99312.64
2022-08-31T22:44:08.373Z,99312.82
2022-08-31T22:46:39.010Z,99310.89
2022-08-31T22:49:08.320Z,99308.45
2022-08-31T22:51:40.768Z,99309.16
2022-08-31T22:54:11.189Z,99309.88
2022-08-31T22:56:39.950Z,99311.11
2022-08-31T22:59:13.933Z,99310.98
2022-08-31T23:01:47.930Z,99312.20
2022-08-31T23:04:21.390Z,99312.73
2022-08-31T23:06:52.036Z,99311.86
2022-08-31T23:09:22.109Z,99310.46
2022-08-31T23:11:54.192Z,99309.77
2022-08-31T23:14:24.181Z,99307.48
2022-08-31T23:16:57.415Z,99307.67
2022-08-31T23:19:31.465Z,99307.02
2022-08-31T23:22:01.203Z,99305.11
2022-08-31T23:24:37.575Z,99304.60
2022-08-31T23:27:10.710Z,99303.55
2022-08-31T23:29:46.109Z,99304.95
2022-08-31T23:32:18.351Z,99301.11
2022-08-31T23:34:50.522Z,99303.38
2022-08-31T23:37:23.452Z,99302.48
2022-08-31T23:39:56.712Z,99300.53
2022-08-31T23:42:28.835Z,99299.98
2022-08-31T23:44:58.709Z,99298.41
2022-08-31T23:47:30.417Z,99297.52
2022-08-31T23:50:00.169Z,99296.33
2022-08-31T23:52:31.746Z,99295.99
2022-08-31T23:55:01.752Z,99294.79
2022-08-31T23:57:32.454Z,99297.75
